sensor_id;sensor_type;location;lat;lon;timestamp;temperature;humidity
48589;DHT22;34369;51.174;6.738;2022-07-04T00:02:14;15.00;67.00
48589;DHT22;34369;51.174;6.738;2022-07-04T00:04:48;15.00;67.30
48589;DHT22;34369;51.174;6.738;2022-07-04T00:07:21;14.90;67.50
48589;DHT22;34369;51.174;6.738;2022-07-04T00:09:55;14.80;67.20
48589;DHT22;34369;51.174;6.738;2022-07-04T00:12:28;14.80;67.70
48589;DHT22;34369;51.174;6.738;2022-07-04T00:15:04;14.70;68.20
48589;DHT22;34369;51.174;6.738;2022-07-04T00:17:37;14.70;68.40
48589;DHT22;34369;51.174;6.738;2022-07-04T00:20:10;14.60;68.70
48589;DHT22;34369;51.174;6.738;2022-07-04T00:22:44;14.50;68.80
48589;DHT22;34369;51.174;6.738;2022-07-04T00:25:19;14.50;68.70
48589;DHT22;34369;51.174;6.738;2022-07-04T00:27:52;14.50;69.00
48589;DHT22;34369;51.174;6.738;2022-07-04T00:30:25;14.40;69.60
48589;DHT22;34369;51.174;6.738;2022-07-04T00:32:57;14.30;69.90
48589;DHT22;34369;51.174;6.738;2022-07-04T00:35:30;14.30;70.10
48589;DHT22;34369;51.174;6.738;2022-07-04T00:38:03;14.30;70.20
48589;DHT22;34369;51.174;6.738;2022-07-04T00:40:40;14.20;70.10
48589;DHT22;34369;51.174;6.738;2022-07-04T00:43:21;14.20;70.60
48589;DHT22;34369;51.174;6.738;2022-07-04T00:45:55;14.10;71.80
48589;DHT22;34369;51.174;6.738;2022-07-04T00:48:28;14.00;71.10
48589;DHT22;34369;51.174;6.738;2022-07-04T00:51:01;14.00;71.00
48589;DHT22;34369;51.174;6.738;2022-07-04T00:53:33;14.00;71.70
48589;DHT22;34369;51.174;6.738;2022-07-04T00:56:07;13.90;71.80
48589;DHT22;34369;51.174;6.738;2022-07-04T00:58:42;13.80;71.90
48589;DHT22;34369;51.174;6.738;2022-07-04T01:01:17;13.80;72.20
48589;DHT22;34369;51.174;6.738;2022-07-04T01:03:50;13.80;72.40
48589;DHT22;34369;51.174;6.738;2022-07-04T01:06:24;13.70;72.50
48589;DHT22;34369;51.174;6.738;2022-07-04T01:08:57;13.70;72.80
48589;DHT22;34369;51.174;6.738;2022-07-04T01:11:31;13.60;72.60
48589;DHT22;34369;51.174;6.738;2022-07-04T01:14:04;13.60;73.20
48589;DHT22;34369;51.174;6.738;2022-07-04T01:16:37;13.60;73.40
48589;DHT22;34369;51.174;6.738;2022-07-04T01:19:11;13.50;73.60
48589;DHT22;34369;51.174;6.738;2022-07-04T01:21:46;13.50;73.80
48589;DHT22;34369;51.174;6.738;2022-07-04T01:24:19;13.50;73.70
48589;DHT22;34369;51.174;6.738;2022-07-04T01:26:51;13.40;73.90
48589;DHT22;34369;51.174;6.738;2022-07-04T01:29:23;13.40;74.30
48589;DHT22;34369;51.174;6.738;2022-07-04T01:31:56;13.30;74.50
48589;DHT22;34369;51.174;6.738;2022-07-04T01:34:29;13.20;74.70
48589;DHT22;34369;51.174;6.738;2022-07-04T01:37:04;13.20;75.00
48589;DHT22;34369;51.174;6.738;2022-07-04T01:39:36;13.20;75.00
48589;DHT22;34369;51.174;6.738;2022-07-04T01:42:10;13.20;75.00
48589;DHT22;34369;51.174;6.738;2022-07-04T01:44:44;13.20;75.40
48589;DHT22;34369;51.174;6.738;2022-07-04T01:47:16;13.10;75.10
48589;DHT22;34369;51.174;6.738;2022-07-04T01:49:48;13.10;75.60
48589;DHT22;34369;51.174;6.738;2022-07-04T01:52:22;13.00;75.70
48589;DHT22;34369;51.174;6.738;2022-07-04T01:54:57;13.00;76.20
48589;DHT22;34369;51.174;6.738;2022-07-04T01:57:30;13.00;76.20
48589;DHT22;34369;51.174;6.738;2022-07-04T02:00:04;13.00;76.40
48589;DHT22;34369;51.174;6.738;2022-07-04T02:02:55;12.90;76.40
48589;DHT22;34369;51.174;6.738;2022-07-04T02:05:27;12.90;76.80
48589;DHT22;34369;51.174;6.738;2022-07-04T02:08:01;12.90;76.90
48589;DHT22;34369;51.174;6.738;2022-07-04T02:10:34;12.90;77.10
48589;DHT22;34369;51.174;6.738;2022-07-04T02:13:07;12.80;77.00
48589;DHT22;34369;51.174;6.738;2022-07-04T02:15:40;12.80;77.30
48589;DHT22;34369;51.174;6.738;2022-07-04T02:18:13;12.80;77.50
48589;DHT22;34369;51.174;6.738;2022-07-04T02:20:46;12.70;77.40
48589;DHT22;34369;51.174;6.738;2022-07-04T02:23:20;12.70;77.30
48589;DHT22;34369;51.174;6.738;2022-07-04T02:25:53;12.60;77.80
48589;DHT22;34369;51.174;6.738;2022-07-04T02:28:25;12.70;77.90
48589;DHT22;34369;51.174;6.738;2022-07-04T02:30:58;12.60;78.20
48589;DHT22;34369;51.174;6.738;2022-07-04T02:33:31;12.60;78.30
48589;DHT22;34369;51.174;6.738;2022-07-04T02:36:04;12.60;78.50
48589;DHT22;34369;51.174;6.738;2022-07-04T02:38:38;12.50;78.80
48589;DHT22;34369;51.174;6.738;2022-07-04T02:41:10;12.50;79.10
48589;DHT22;34369;51.174;6.738;2022-07-04T02:43:43;12.50;79.30
48589;DHT22;34369;51.174;6.738;2022-07-04T02:46:15;12.50;79.30
48589;DHT22;34369;51.174;6.738;2022-07-04T02:48:48;12.40;79.20
48589;DHT22;34369;51.174;6.738;2022-07-04T02:51:21;12.40;79.40
48589;DHT22;34369;51.174;6.738;2022-07-04T02:53:55;12.40;79.60
48589;DHT22;34369;51.174;6.738;2022-07-04T02:56:27;12.40;80.20
48589;DHT22;34369;51.174;6.738;2022-07-04T02:59:00;12.30;79.40
48589;DHT22;34369;51.174;6.738;2022-07-04T03:01:32;12.30;79.60
48589;DHT22;34369;51.174;6.738;2022-07-04T03:04:05;12.30;79.50
48589;DHT22;34369;51.174;6.738;2022-07-04T03:06:38;12.20;79.70
48589;DHT22;34369;51.174;6.738;2022-07-04T03:09:14;12.20;79.90
48589;DHT22;34369;51.174;6.738;2022-07-04T03:11:52;12.20;80.00
48589;DHT22;34369;51.174;6.738;2022-07-04T03:14:33;12.20;80.60
48589;DHT22;34369;51.174;6.738;2022-07-04T03:17:06;12.10;80.20
48589;DHT22;34369;51.174;6.738;2022-07-04T03:19:39;12.10;80.40
48589;DHT22;34369;51.174;6.738;2022-07-04T03:22:11;12.10;80.40
48589;DHT22;34369;51.174;6.738;2022-07-04T03:24:45;12.00;80.50
48589;DHT22;34369;51.174;6.738;2022-07-04T03:27:17;12.00;80.90
48589;DHT22;34369;51.174;6.738;2022-07-04T03:29:50;12.00;81.10
48589;DHT22;34369;51.174;6.738;2022-07-04T03:32:23;11.90;81.10
48589;DHT22;34369;51.174;6.738;2022-07-04T03:34:55;11.90;81.40
48589;DHT22;34369;51.174;6.738;2022-07-04T03:37:27;11.90;81.50
48589;DHT22;34369;51.174;6.738;2022-07-04T03:40:01;11.90;81.70
48589;DHT22;34369;51.174;6.738;2022-07-04T03:42:33;11.90;82.10
48589;DHT22;34369;51.174;6.738;2022-07-04T03:45:06;11.90;82.20
48589;DHT22;34369;51.174;6.738;2022-07-04T03:47:39;11.90;82.60
48589;DHT22;34369;51.174;6.738;2022-07-04T03:50:11;11.80;82.30
48589;DHT22;34369;51.174;6.738;2022-07-04T03:52:44;11.80;82.60
48589;DHT22;34369;51.174;6.738;2022-07-04T03:55:23;11.80;82.60
48589;DHT22;34369;51.174;6.738;2022-07-04T03:58:01;11.80;83.60
48589;DHT22;34369;51.174;6.738;2022-07-04T04:00:42;11.80;83.30
48589;DHT22;34369;51.174;6.738;2022-07-04T04:03:14;11.80;83.10
48589;DHT22;34369;51.174;6.738;2022-07-04T04:06:04;11.80;83.40
48589;DHT22;34369;51.174;6.738;2022-07-04T04:08:36;11.80;84.10
48589;DHT22;34369;51.174;6.738;2022-07-04T04:11:09;11.80;83.70
48589;DHT22;34369;51.174;6.738;2022-07-04T04:13:41;11.90;83.70
48589;DHT22;34369;51.174;6.738;2022-07-04T04:16:13;11.90;84.00
48589;DHT22;34369;51.174;6.738;2022-07-04T04:18:45;11.80;84.10
48589;DHT22;34369;51.174;6.738;2022-07-04T04:21:17;11.90;84.20
48589;DHT22;34369;51.174;6.738;2022-07-04T04:23:49;11.90;84.40
48589;DHT22;34369;51.174;6.738;2022-07-04T04:26:22;11.90;84.50
48589;DHT22;34369;51.174;6.738;2022-07-04T04:28:55;12.00;84.90
48589;DHT22;34369;51.174;6.738;2022-07-04T04:31:27;12.00;84.90
48589;DHT22;34369;51.174;6.738;2022-07-04T04:34:01;12.00;84.90
48589;DHT22;34369;51.174;6.738;2022-07-04T04:36:33;12.10;85.00
48589;DHT22;34369;51.174;6.738;2022-07-04T04:39:05;12.10;85.30
48589;DHT22;34369;51.174;6.738;2022-07-04T04:41:39;12.10;85.40
48589;DHT22;34369;51.174;6.738;2022-07-04T04:44:11;12.20;85.70
48589;DHT22;34369;51.174;6.738;2022-07-04T04:46:43;12.30;85.60
48589;DHT22;34369;51.174;6.738;2022-07-04T04:49:15;12.30;85.50
48589;DHT22;34369;51.174;6.738;2022-07-04T04:51:47;12.40;85.50
48589;DHT22;34369;51.174;6.738;2022-07-04T04:54:21;12.40;85.40
48589;DHT22;34369;51.174;6.738;2022-07-04T04:56:55;12.50;85.60
48589;DHT22;34369;51.174;6.738;2022-07-04T04:59:27;12.60;85.80
48589;DHT22;34369;51.174;6.738;2022-07-04T05:02:00;12.70;85.60
48589;DHT22;34369;51.174;6.738;2022-07-04T05:04:33;12.80;85.60
48589;DHT22;34369;51.174;6.738;2022-07-04T05:07:06;12.80;85.40
48589;DHT22;34369;51.174;6.738;2022-07-04T05:09:38;12.90;85.50
48589;DHT22;34369;51.174;6.738;2022-07-04T05:12:12;13.00;85.30
48589;DHT22;34369;51.174;6.738;2022-07-04T05:14:45;13.10;85.40
48589;DHT22;34369;51.174;6.738;2022-07-04T05:17:20;13.20;85.10
48589;DHT22;34369;51.174;6.738;2022-07-04T05:19:52;13.30;85.10
48589;DHT22;34369;51.174;6.738;2022-07-04T05:22:25;13.40;84.90
48589;DHT22;34369;51.174;6.738;2022-07-04T05:24:59;13.50;84.80
48589;DHT22;34369;51.174;6.738;2022-07-04T05:27:34;13.50;84.60
48589;DHT22;34369;51.174;6.738;2022-07-04T05:30:09;13.60;84.50
48589;DHT22;34369;51.174;6.738;2022-07-04T05:32:46;13.70;83.90
48589;DHT22;34369;51.174;6.738;2022-07-04T05:38:08;13.90;83.90
48589;DHT22;34369;51.174;6.738;2022-07-04T05:40:41;14.00;83.60
48589;DHT22;34369;51.174;6.738;2022-07-04T05:47:02;14.10;84.20
48589;DHT22;34369;51.174;6.738;2022-07-04T05:49:39;14.20;83.60
48589;DHT22;34369;51.174;6.738;2022-07-04T05:52:13;14.30;83.40
48589;DHT22;34369;51.174;6.738;2022-07-04T05:54:47;14.40;83.30
48589;DHT22;34369;51.174;6.738;2022-07-04T06:01:21;14.50;83.90
48589;DHT22;34369;51.174;6.738;2022-07-04T06:18:29;15.20;80.90
48589;DHT22;34369;51.174;6.738;2022-07-04T06:21:01;15.20;80.80
48589;DHT22;34369;51.174;6.738;2022-07-04T06:23:33;15.30;80.70
48589;DHT22;34369;51.174;6.738;2022-07-04T06:26:05;15.40;80.60
48589;DHT22;34369;51.174;6.738;2022-07-04T06:28:37;15.40;80.30
48589;DHT22;34369;51.174;6.738;2022-07-04T06:31:11;15.60;79.70
48589;DHT22;34369;51.174;6.738;2022-07-04T06:33:45;15.60;79.80
48589;DHT22;34369;51.174;6.738;2022-07-04T06:36:43;15.70;80.00
48589;DHT22;34369;51.174;6.738;2022-07-04T06:39:16;15.80;80.00
48589;DHT22;34369;51.174;6.738;2022-07-04T06:41:49;15.90;79.20
48589;DHT22;34369;51.174;6.738;2022-07-04T06:44:21;16.00;78.50
48589;DHT22;34369;51.174;6.738;2022-07-04T06:46:53;16.10;78.90
48589;DHT22;34369;51.174;6.738;2022-07-04T06:49:27;16.10;78.70
48589;DHT22;34369;51.174;6.738;2022-07-04T06:51:59;16.20;78.00
48589;DHT22;34369;51.174;6.738;2022-07-04T06:54:31;16.30;78.10
48589;DHT22;34369;51.174;6.738;2022-07-04T06:57:21;16.40;76.80
48589;DHT22;34369;51.174;6.738;2022-07-04T07:00:29;16.50;76.20
48589;DHT22;34369;51.174;6.738;2022-07-04T07:03:04;16.60;76.10
48589;DHT22;34369;51.174;6.738;2022-07-04T07:05:41;16.70;75.70
48589;DHT22;34369;51.174;6.738;2022-07-04T07:08:18;16.80;75.40
48589;DHT22;34369;51.174;6.738;2022-07-04T07:10:50;16.80;74.10
48589;DHT22;34369;51.174;6.738;2022-07-04T07:13:23;16.90;73.40
48589;DHT22;34369;51.174;6.738;2022-07-04T07:15:57;17.00;72.80
48589;DHT22;34369;51.174;6.738;2022-07-04T07:18:29;17.10;72.80
48589;DHT22;34369;51.174;6.738;2022-07-04T07:21:03;17.20;72.20
48589;DHT22;34369;51.174;6.738;2022-07-04T07:23:38;17.30;71.20
48589;DHT22;34369;51.174;6.738;2022-07-04T07:26:11;17.40;71.30
48589;DHT22;34369;51.174;6.738;2022-07-04T07:28:44;17.40;71.70
48589;DHT22;34369;51.174;6.738;2022-07-04T07:31:16;17.50;71.30
48589;DHT22;34369;51.174;6.738;2022-07-04T07:33:50;17.60;70.80
48589;DHT22;34369;51.174;6.738;2022-07-04T07:36:23;17.70;69.30
48589;DHT22;34369;51.174;6.738;2022-07-04T07:38:55;17.70;68.90
48589;DHT22;34369;51.174;6.738;2022-07-04T07:41:27;17.80;68.70
48589;DHT22;34369;51.174;6.738;2022-07-04T07:43:59;17.80;68.70
48589;DHT22;34369;51.174;6.738;2022-07-04T07:46:31;17.90;68.80
48589;DHT22;34369;51.174;6.738;2022-07-04T07:49:03;18.00;69.30
48589;DHT22;34369;51.174;6.738;2022-07-04T07:51:37;18.10;69.20
48589;DHT22;34369;51.174;6.738;2022-07-04T07:54:09;18.20;68.40
48589;DHT22;34369;51.174;6.738;2022-07-04T07:56:41;18.40;68.50
48589;DHT22;34369;51.174;6.738;2022-07-04T07:59:13;18.60;68.40
48589;DHT22;34369;51.174;6.738;2022-07-04T08:01:46;19.00;68.30
48589;DHT22;34369;51.174;6.738;2022-07-04T08:04:18;19.40;67.60
48589;DHT22;34369;51.174;6.738;2022-07-04T08:07:10;19.80;66.60
48589;DHT22;34369;51.174;6.738;2022-07-04T08:09:43;20.30;65.50
48589;DHT22;34369;51.174;6.738;2022-07-04T08:12:15;20.80;65.40
48589;DHT22;34369;51.174;6.738;2022-07-04T08:14:47;21.20;64.00
48589;DHT22;34369;51.174;6.738;2022-07-04T08:17:20;21.70;62.60
48589;DHT22;34369;51.174;6.738;2022-07-04T08:19:52;22.10;62.10
48589;DHT22;34369;51.174;6.738;2022-07-04T08:22:26;22.50;61.20
48589;DHT22;34369;51.174;6.738;2022-07-04T08:24:58;22.90;59.80
48589;DHT22;34369;51.174;6.738;2022-07-04T08:27:31;23.20;60.10
48589;DHT22;34369;51.174;6.738;2022-07-04T08:30:04;23.60;58.90
48589;DHT22;34369;51.174;6.738;2022-07-04T08:32:36;24.00;56.50
48589;DHT22;34369;51.174;6.738;2022-07-04T08:35:09;24.30;56.80
48589;DHT22;34369;51.174;6.738;2022-07-04T08:37:42;24.60;55.20
48589;DHT22;34369;51.174;6.738;2022-07-04T08:40:14;24.90;52.90
48589;DHT22;34369;51.174;6.738;2022-07-04T08:42:46;25.20;53.00
48589;DHT22;34369;51.174;6.738;2022-07-04T08:45:25;25.40;52.70
48589;DHT22;34369;51.174;6.738;2022-07-04T08:48:01;25.60;50.90
48589;DHT22;34369;51.174;6.738;2022-07-04T08:50:48;25.80;50.70
48589;DHT22;34369;51.174;6.738;2022-07-04T08:53:30;26.00;50.80
48589;DHT22;34369;51.174;6.738;2022-07-04T08:56:03;26.20;49.40
48589;DHT22;34369;51.174;6.738;2022-07-04T08:58:53;26.40;50.80
48589;DHT22;34369;51.174;6.738;2022-07-04T09:01:27;26.60;49.30
48589;DHT22;34369;51.174;6.738;2022-07-04T09:04:00;26.80;49.50
48589;DHT22;34369;51.174;6.738;2022-07-04T09:06:34;26.90;49.10
48589;DHT22;34369;51.174;6.738;2022-07-04T09:09:07;27.00;48.90
48589;DHT22;34369;51.174;6.738;2022-07-04T09:14:34;27.20;47.90
48589;DHT22;34369;51.174;6.738;2022-07-04T09:17:19;27.30;48.20
48589;DHT22;34369;51.174;6.738;2022-07-04T09:20:13;27.40;47.30
48589;DHT22;34369;51.174;6.738;2022-07-04T09:22:48;27.60;46.10
48589;DHT22;34369;51.174;6.738;2022-07-04T09:25:25;27.70;46.90
48589;DHT22;34369;51.174;6.738;2022-07-04T09:27:57;27.70;45.50
48589;DHT22;34369;51.174;6.738;2022-07-04T09:30:29;27.80;46.40
48589;DHT22;34369;51.174;6.738;2022-07-04T09:33:01;27.90;45.90
48589;DHT22;34369;51.174;6.738;2022-07-04T09:35:35;27.90;45.00
48589;DHT22;34369;51.174;6.738;2022-07-04T09:38:11;28.00;44.60
48589;DHT22;34369;51.174;6.738;2022-07-04T09:40:44;28.00;44.30
48589;DHT22;34369;51.174;6.738;2022-07-04T09:44:01;28.00;44.20
48589;DHT22;34369;51.174;6.738;2022-07-04T09:46:38;27.90;43.70
48589;DHT22;34369;51.174;6.738;2022-07-04T09:49:11;27.80;43.50
48589;DHT22;34369;51.174;6.738;2022-07-04T09:51:44;27.60;43.10
48589;DHT22;34369;51.174;6.738;2022-07-04T09:54:20;27.40;43.50
48589;DHT22;34369;51.174;6.738;2022-07-04T09:56:59;27.10;43.10
48589;DHT22;34369;51.174;6.738;2022-07-04T09:59:32;26.80;42.80
48589;DHT22;34369;51.174;6.738;2022-07-04T10:02:09;26.60;43.30
48589;DHT22;34369;51.174;6.738;2022-07-04T10:04:44;26.30;43.00
48589;DHT22;34369;51.174;6.738;2022-07-04T10:07:36;26.10;43.10
48589;DHT22;34369;51.174;6.738;2022-07-04T10:10:29;25.80;41.40
48589;DHT22;34369;51.174;6.738;2022-07-04T10:13:07;25.50;42.90
48589;DHT22;34369;51.174;6.738;2022-07-04T10:15:45;25.30;43.60
48589;DHT22;34369;51.174;6.738;2022-07-04T10:18:20;25.00;44.60
48589;DHT22;34369;51.174;6.738;2022-07-04T10:20:55;24.90;45.00
48589;DHT22;34369;51.174;6.738;2022-07-04T10:23:29;24.70;44.90
48589;DHT22;34369;51.174;6.738;2022-07-04T10:26:05;24.60;45.50
48589;DHT22;34369;51.174;6.738;2022-07-04T10:28:41;24.50;45.30
48589;DHT22;34369;51.174;6.738;2022-07-04T10:31:15;24.50;46.00
48589;DHT22;34369;51.174;6.738;2022-07-04T10:33:49;24.40;45.90
48589;DHT22;34369;51.174;6.738;2022-07-04T10:36:25;24.40;45.00
48589;DHT22;34369;51.174;6.738;2022-07-04T10:39:01;24.40;45.20
48589;DHT22;34369;51.174;6.738;2022-07-04T10:41:57;24.40;44.90
48589;DHT22;34369;51.174;6.738;2022-07-04T10:44:35;24.40;45.60
48589;DHT22;34369;51.174;6.738;2022-07-04T10:47:21;24.50;45.90
48589;DHT22;34369;51.174;6.738;2022-07-04T10:50:02;24.50;46.40
48589;DHT22;34369;51.174;6.738;2022-07-04T10:52:34;24.60;46.20
48589;DHT22;34369;51.174;6.738;2022-07-04T10:55:11;24.80;46.00
48589;DHT22;34369;51.174;6.738;2022-07-04T10:57:43;25.00;46.10
48589;DHT22;34369;51.174;6.738;2022-07-04T11:00:17;25.20;46.90
48589;DHT22;34369;51.174;6.738;2022-07-04T11:02:48;25.50;46.80
48589;DHT22;34369;51.174;6.738;2022-07-04T11:05:31;25.70;45.60
48589;DHT22;34369;51.174;6.738;2022-07-04T11:08:05;26.00;44.20
48589;DHT22;34369;51.174;6.738;2022-07-04T11:10:39;26.20;45.30
48589;DHT22;34369;51.174;6.738;2022-07-04T11:13:18;26.40;44.50
48589;DHT22;34369;51.174;6.738;2022-07-04T11:16:02;26.60;43.60
48589;DHT22;34369;51.174;6.738;2022-07-04T11:18:44;26.70;43.10
48589;DHT22;34369;51.174;6.738;2022-07-04T11:21:21;26.70;42.10
48589;DHT22;34369;51.174;6.738;2022-07-04T11:23:55;26.80;42.70
48589;DHT22;34369;51.174;6.738;2022-07-04T11:26:27;26.70;43.10
48589;DHT22;34369;51.174;6.738;2022-07-04T11:29:00;26.70;43.10
48589;DHT22;34369;51.174;6.738;2022-07-04T11:31:42;26.70;44.10
48589;DHT22;34369;51.174;6.738;2022-07-04T11:34:15;26.70;44.50
48589;DHT22;34369;51.174;6.738;2022-07-04T11:36:49;26.80;44.70
48589;DHT22;34369;51.174;6.738;2022-07-04T11:39:22;26.80;43.90
48589;DHT22;34369;51.174;6.738;2022-07-04T11:41:54;26.80;44.10
48589;DHT22;34369;51.174;6.738;2022-07-04T11:44:44;26.80;44.40
48589;DHT22;34369;51.174;6.738;2022-07-04T11:50:37;26.80;43.60
48589;DHT22;34369;51.174;6.738;2022-07-04T11:53:09;26.90;43.80
48589;DHT22;34369;51.174;6.738;2022-07-04T11:55:52;27.00;43.00
48589;DHT22;34369;51.174;6.738;2022-07-04T11:58:24;27.00;42.00
48589;DHT22;34369;51.174;6.738;2022-07-04T12:00:59;26.90;43.50
48589;DHT22;34369;51.174;6.738;2022-07-04T12:03:32;26.80;43.70
48589;DHT22;34369;51.174;6.738;2022-07-04T12:06:06;26.80;43.40
48589;DHT22;34369;51.174;6.738;2022-07-04T12:08:38;26.80;43.80
48589;DHT22;34369;51.174;6.738;2022-07-04T12:11:10;26.90;43.30
48589;DHT22;34369;51.174;6.738;2022-07-04T12:13:42;27.00;43.90
48589;DHT22;34369;51.174;6.738;2022-07-04T12:16:14;27.10;43.50
48589;DHT22;34369;51.174;6.738;2022-07-04T12:18:46;27.20;44.10
48589;DHT22;34369;51.174;6.738;2022-07-04T12:21:20;27.20;43.20
48589;DHT22;34369;51.174;6.738;2022-07-04T12:23:54;27.30;43.70
48589;DHT22;34369;51.174;6.738;2022-07-04T12:26:28;27.40;43.20
48589;DHT22;34369;51.174;6.738;2022-07-04T12:29:02;27.40;42.60
48589;DHT22;34369;51.174;6.738;2022-07-04T12:31:40;27.50;42.80
48589;DHT22;34369;51.174;6.738;2022-07-04T12:34:14;27.50;42.50
48589;DHT22;34369;51.174;6.738;2022-07-04T12:36:52;27.60;42.80
48589;DHT22;34369;51.174;6.738;2022-07-04T12:39:30;27.60;41.20
48589;DHT22;34369;51.174;6.738;2022-07-04T12:42:16;27.60;40.20
48589;DHT22;34369;51.174;6.738;2022-07-04T12:44:49;27.70;42.20
48589;DHT22;34369;51.174;6.738;2022-07-04T12:47:22;27.70;41.80
48589;DHT22;34369;51.174;6.738;2022-07-04T12:49:55;27.70;41.40
48589;DHT22;34369;51.174;6.738;2022-07-04T12:52:29;27.80;41.30
48589;DHT22;34369;51.174;6.738;2022-07-04T12:55:02;27.80;41.00
48589;DHT22;34369;51.174;6.738;2022-07-04T12:57:36;27.80;41.10
48589;DHT22;34369;51.174;6.738;2022-07-04T13:00:09;27.70;40.80
48589;DHT22;34369;51.174;6.738;2022-07-04T13:02:42;27.60;40.60
48589;DHT22;34369;51.174;6.738;2022-07-04T13:05:14;27.50;40.30
48589;DHT22;34369;51.174;6.738;2022-07-04T13:07:48;27.40;40.60
48589;DHT22;34369;51.174;6.738;2022-07-04T13:10:21;27.20;39.80
48589;DHT22;34369;51.174;6.738;2022-07-04T13:12:54;27.10;42.10
48589;DHT22;34369;51.174;6.738;2022-07-04T13:15:26;27.10;41.20
48589;DHT22;34369;51.174;6.738;2022-07-04T13:17:58;27.00;41.00
48589;DHT22;34369;51.174;6.738;2022-07-04T13:20:30;27.00;40.70
48589;DHT22;34369;51.174;6.738;2022-07-04T13:23:03;27.00;40.60
48589;DHT22;34369;51.174;6.738;2022-07-04T13:25:35;26.90;40.80
48589;DHT22;34369;51.174;6.738;2022-07-04T13:28:11;26.90;41.40
48589;DHT22;34369;51.174;6.738;2022-07-04T13:30:45;26.80;40.60
48589;DHT22;34369;51.174;6.738;2022-07-04T13:33:20;26.80;40.90
48589;DHT22;34369;51.174;6.738;2022-07-04T13:35:53;26.70;40.90
48589;DHT22;34369;51.174;6.738;2022-07-04T13:38:26;26.70;40.40
48589;DHT22;34369;51.174;6.738;2022-07-04T13:40:59;26.60;40.80
48589;DHT22;34369;51.174;6.738;2022-07-04T13:43:31;26.60;41.80
48589;DHT22;34369;51.174;6.738;2022-07-04T13:46:03;26.60;42.30
48589;DHT22;34369;51.174;6.738;2022-07-04T13:48:37;26.60;41.00
48589;DHT22;34369;51.174;6.738;2022-07-04T13:51:10;26.60;41.10
48589;DHT22;34369;51.174;6.738;2022-07-04T13:53:49;26.70;41.40
48589;DHT22;34369;51.174;6.738;2022-07-04T13:56:35;26.70;40.40
48589;DHT22;34369;51.174;6.738;2022-07-04T13:59:07;26.80;41.80
48589;DHT22;34369;51.174;6.738;2022-07-04T14:01:40;26.90;42.40
48589;DHT22;34369;51.174;6.738;2022-07-04T14:04:17;27.00;41.40
48589;DHT22;34369;51.174;6.738;2022-07-04T14:06:51;27.00;41.10
48589;DHT22;34369;51.174;6.738;2022-07-04T14:09:25;27.00;41.50
48589;DHT22;34369;51.174;6.738;2022-07-04T14:11:57;27.00;41.80
48589;DHT22;34369;51.174;6.738;2022-07-04T14:14:29;27.00;41.60
48589;DHT22;34369;51.174;6.738;2022-07-04T14:17:04;27.00;41.80
48589;DHT22;34369;51.174;6.738;2022-07-04T14:19:36;27.00;40.90
48589;DHT22;34369;51.174;6.738;2022-07-04T14:22:14;27.10;40.90
48589;DHT22;34369;51.174;6.738;2022-07-04T14:24:47;27.20;41.70
48589;DHT22;34369;51.174;6.738;2022-07-04T14:27:19;27.30;40.30
48589;DHT22;34369;51.174;6.738;2022-07-04T14:29:51;27.40;40.80
48589;DHT22;34369;51.174;6.738;2022-07-04T14:32:24;27.40;40.80
48589;DHT22;34369;51.174;6.738;2022-07-04T14:34:56;27.40;41.10
48589;DHT22;34369;51.174;6.738;2022-07-04T14:37:28;27.40;40.40
48589;DHT22;34369;51.174;6.738;2022-07-04T14:40:02;27.40;40.60
48589;DHT22;34369;51.174;6.738;2022-07-04T14:42:34;27.30;39.40
48589;DHT22;34369;51.174;6.738;2022-07-04T14:45:06;27.10;39.30
48589;DHT22;34369;51.174;6.738;2022-07-04T14:47:39;27.00;39.30
48589;DHT22;34369;51.174;6.738;2022-07-04T14:50:12;26.90;40.20
48589;DHT22;34369;51.174;6.738;2022-07-04T14:52:44;26.80;40.90
48589;DHT22;34369;51.174;6.738;2022-07-04T14:55:17;26.60;40.90
48589;DHT22;34369;51.174;6.738;2022-07-04T14:57:50;26.60;40.60
48589;DHT22;34369;51.174;6.738;2022-07-04T15:00:22;26.50;39.70
48589;DHT22;34369;51.174;6.738;2022-07-04T15:02:55;26.50;40.20
48589;DHT22;34369;51.174;6.738;2022-07-04T15:05:27;26.40;40.20
48589;DHT22;34369;51.174;6.738;2022-07-04T15:07:59;26.30;40.60
48589;DHT22;34369;51.174;6.738;2022-07-04T15:10:33;26.30;40.60
48589;DHT22;34369;51.174;6.738;2022-07-04T15:13:05;26.30;40.40
48589;DHT22;34369;51.174;6.738;2022-07-04T15:15:37;26.20;41.60
48589;DHT22;34369;51.174;6.738;2022-07-04T15:18:08;26.20;41.00
48589;DHT22;34369;51.174;6.738;2022-07-04T15:20:40;26.10;41.60
48589;DHT22;34369;51.174;6.738;2022-07-04T15:23:30;26.00;41.00
48589;DHT22;34369;51.174;6.738;2022-07-04T15:26:21;25.90;41.80
48589;DHT22;34369;51.174;6.738;2022-07-04T15:28:53;25.90;41.50
48589;DHT22;34369;51.174;6.738;2022-07-04T15:31:28;25.90;42.10
48589;DHT22;34369;51.174;6.738;2022-07-04T15:34:00;26.00;42.00
48589;DHT22;34369;51.174;6.738;2022-07-04T15:36:32;26.10;42.50
48589;DHT22;34369;51.174;6.738;2022-07-04T15:39:06;26.20;43.10
48589;DHT22;34369;51.174;6.738;2022-07-04T15:41:40;26.30;41.70
48589;DHT22;34369;51.174;6.738;2022-07-04T15:44:14;26.60;42.70
48589;DHT22;34369;51.174;6.738;2022-07-04T15:46:47;26.70;42.60
48589;DHT22;34369;51.174;6.738;2022-07-04T15:49:37;26.90;42.90
48589;DHT22;34369;51.174;6.738;2022-07-04T15:52:09;27.00;41.60
48589;DHT22;34369;51.174;6.738;2022-07-04T15:54:42;27.10;41.30
48589;DHT22;34369;51.174;6.738;2022-07-04T15:57:15;27.10;41.10
48589;DHT22;34369;51.174;6.738;2022-07-04T15:59:47;27.10;41.10
48589;DHT22;34369;51.174;6.738;2022-07-04T16:02:19;27.10;40.30
48589;DHT22;34369;51.174;6.738;2022-07-04T16:04:51;27.10;40.20
48589;DHT22;34369;51.174;6.738;2022-07-04T16:07:23;27.10;40.30
48589;DHT22;34369;51.174;6.738;2022-07-04T16:09:55;27.20;40.30
48589;DHT22;34369;51.174;6.738;2022-07-04T16:12:29;27.20;40.80
48589;DHT22;34369;51.174;6.738;2022-07-04T16:15:04;27.30;40.90
48589;DHT22;34369;51.174;6.738;2022-07-04T16:17:37;27.40;40.70
48589;DHT22;34369;51.174;6.738;2022-07-04T16:20:09;27.40;40.30
48589;DHT22;34369;51.174;6.738;2022-07-04T16:22:42;27.50;40.60
48589;DHT22;34369;51.174;6.738;2022-07-04T16:25:14;27.50;40.70
48589;DHT22;34369;51.174;6.738;2022-07-04T16:27:48;27.50;40.10
48589;DHT22;34369;51.174;6.738;2022-07-04T16:30:20;27.50;40.60
48589;DHT22;34369;51.174;6.738;2022-07-04T16:32:51;27.50;40.20
48589;DHT22;34369;51.174;6.738;2022-07-04T16:35:23;27.50;40.30
48589;DHT22;34369;51.174;6.738;2022-07-04T16:37:56;27.50;39.90
48589;DHT22;34369;51.174;6.738;2022-07-04T16:40:29;27.60;39.90
48589;DHT22;34369;51.174;6.738;2022-07-04T16:43:04;27.60;39.70
48589;DHT22;34369;51.174;6.738;2022-07-04T16:45:55;27.60;39.40
48589;DHT22;34369;51.174;6.738;2022-07-04T16:48:31;27.60;38.30